createdAt,value
2019-03-31T00:00:21.225Z,94.01
2019-03-31T00:01:21.798Z,93.87
2019-03-31T00:02:22.371Z,93.91
2019-03-31T00:03:22.944Z,93.91
2019-03-31T00:04:23.568Z,93.73
2019-03-31T00:05:24.148Z,93.91
2019-03-31T00:06:24.763Z,94.16
2019-03-31T00:07:25.335Z,93.49
2019-03-31T00:08:25.909Z,94.16
2019-03-31T00:09:26.548Z,94.06
2019-03-31T00:10:27.199Z,93.87
2019-03-31T00:11:27.774Z,93.68
2019-03-31T00:12:28.480Z,93.87
2019-03-31T00:13:29.024Z,93.87
2019-03-31T00:14:29.651Z,93.58
2019-03-31T00:15:30.225Z,93.87
2019-03-31T00:16:30.799Z,93.87
2019-03-31T00:17:31.372Z,94.06
2019-03-31T00:18:31.946Z,94.16
2019-03-31T00:19:32.572Z,94.16
2019-03-31T00:20:33.198Z,94.16
2019-03-31T00:21:33.772Z,94.16
2019-03-31T00:22:34.496Z,93.87
2019-03-31T00:23:35.070Z,94.16
2019-03-31T00:24:35.645Z,94.73
2019-03-31T00:25:36.217Z,94.06
2019-03-31T00:26:36.795Z,94.16
2019-03-31T00:27:37.374Z,93.87
2019-03-31T00:28:37.946Z,94.16
2019-03-31T00:29:38.520Z,94.06
2019-03-31T00:30:39.143Z,93.49
2019-03-31T00:31:39.815Z,93.87
2019-03-31T00:32:40.438Z,94.26
2019-03-31T00:33:41.060Z,93.49
2019-03-31T00:34:41.635Z,93.10
2019-03-31T00:35:42.208Z,93.49
2019-03-31T00:36:42.833Z,93.19
2019-03-31T00:37:43.407Z,93.68
2019-03-31T00:38:43.981Z,93.77
2019-03-31T00:39:44.554Z,93.19
2019-03-31T00:40:45.129Z,93.68
2019-03-31T00:41:45.703Z,93.19
2019-03-31T00:42:46.276Z,93.87
2019-03-31T00:43:46.850Z,92.91
2019-03-31T00:44:47.476Z,93.19
2019-03-31T00:45:48.049Z,93.19
2019-03-31T00:46:48.675Z,93.19
2019-03-31T00:47:49.333Z,93.39
2019-03-31T00:48:49.857Z,93.01
2019-03-31T00:49:50.430Z,93.10
2019-03-31T00:50:51.006Z,92.91
2019-03-31T00:51:51.630Z,92.62
2019-03-31T00:52:52.253Z,92.52
2019-03-31T00:53:52.837Z,92.91
2019-03-31T00:55:54.966Z,92.91
2019-03-31T00:56:55.533Z,93.19
2019-03-31T00:57:56.103Z,93.39
2019-03-31T00:58:56.666Z,93.39
2019-03-31T01:01:12.700Z,93.01
2019-03-31T01:02:13.267Z,93.19
2019-03-31T01:03:13.837Z,93.39
2019-03-31T01:04:14.403Z,93.01
2019-03-31T01:06:30.440Z,93.10
2019-03-31T01:07:31.008Z,93.19
2019-03-31T01:08:31.578Z,93.19
2019-03-31T01:09:32.146Z,93.19
2019-03-31T01:10:32.741Z,93.58
2019-03-31T01:11:33.366Z,93.39
2019-03-31T01:12:33.936Z,93.10
2019-03-31T01:13:34.553Z,92.52
2019-03-31T01:14:35.123Z,93.10
2019-03-31T01:15:35.693Z,93.01
2019-03-31T01:16:36.259Z,92.81
2019-03-31T01:17:36.829Z,92.33
2019-03-31T01:18:37.456Z,93.10
2019-03-31T01:19:38.061Z,93.29
2019-03-31T01:20:38.630Z,93.10
2019-03-31T01:21:39.249Z,93.10
2019-03-31T01:22:39.859Z,93.01
2019-03-31T01:23:40.430Z,92.48
2019-03-31T01:24:40.995Z,93.15
2019-03-31T01:25:41.564Z,92.91
2019-03-31T01:26:42.176Z,93.29
2019-03-31T01:27:42.743Z,93.10
2019-03-31T01:28:43.318Z,93.63
2019-03-31T01:29:43.888Z,93.87
2019-03-31T01:30:44.453Z,93.54
2019-03-31T01:31:50.570Z,93.39
2019-03-31T01:32:45.629Z,93.19
2019-03-31T01:33:46.252Z,93.34
2019-03-31T01:34:46.822Z,93.25
2019-03-31T01:37:02.664Z,93.25
2019-03-31T01:38:03.281Z,92.77
2019-03-31T01:39:03.850Z,92.86
2019-03-31T01:40:04.418Z,92.91
2019-03-31T01:41:04.986Z,92.67
2019-03-31T01:42:05.554Z,93.25
2019-03-31T01:43:06.123Z,93.15
2019-03-31T01:44:06.691Z,93.05
2019-03-31T01:45:07.257Z,93.25
2019-03-31T01:46:07.827Z,93.34
2019-03-31T01:47:08.395Z,93.63
2019-03-31T01:48:08.962Z,92.96
2019-03-31T01:49:09.538Z,93.15
2019-03-31T01:50:10.192Z,93.15
2019-03-31T01:51:10.809Z,93.15
2019-03-31T01:52:11.378Z,93.15
2019-03-31T01:53:11.948Z,92.86
2019-03-31T01:54:12.514Z,92.96
2019-03-31T01:55:13.139Z,93.15
2019-03-31T01:56:13.744Z,93.34
2019-03-31T01:57:14.315Z,92.86
2019-03-31T01:58:14.883Z,92.86
2019-03-31T01:59:15.523Z,93.15
2019-03-31T02:00:16.111Z,93.05
2019-03-31T02:01:16.682Z,92.48
2019-03-31T02:02:17.293Z,92.57
2019-03-31T02:03:17.864Z,92.38
2019-03-31T02:04:18.433Z,92.29
2019-03-31T02:05:19.161Z,92.29
2019-03-31T02:06:19.765Z,93.05
2019-03-31T02:07:20.334Z,92.96
2019-03-31T02:08:20.953Z,92.67
2019-03-31T02:09:21.521Z,92.96
2019-03-31T02:10:22.093Z,93.05
2019-03-31T02:11:22.661Z,93.05
2019-03-31T02:12:23.231Z,93.54
2019-03-31T02:13:23.798Z,93.25
2019-03-31T02:14:24.365Z,93.15
2019-03-31T02:15:24.934Z,93.34
2019-03-31T02:16:25.508Z,93.15
2019-03-31T02:17:26.074Z,92.86
2019-03-31T02:18:26.640Z,93.15
2019-03-31T02:19:27.256Z,93.05
2019-03-31T02:20:27.875Z,93.05
2019-03-31T02:21:28.492Z,92.96
2019-03-31T02:22:29.062Z,93.15
2019-03-31T02:23:29.630Z,92.96
2019-03-31T02:24:30.249Z,92.67
2019-03-31T02:25:30.866Z,92.48
2019-03-31T02:26:31.489Z,93.05
2019-03-31T02:27:32.056Z,93.34
2019-03-31T02:28:32.627Z,92.96
2019-03-31T02:29:33.243Z,93.15
2019-03-31T02:30:33.853Z,93.05
2019-03-31T02:31:34.495Z,92.48
2019-03-31T02:32:35.058Z,93.05
2019-03-31T02:33:35.626Z,92.77
2019-03-31T02:34:36.203Z,93.15
2019-03-31T02:35:36.767Z,92.96
2019-03-31T02:36:37.336Z,93.54
2019-03-31T02:37:37.956Z,93.63
2019-03-31T02:38:38.523Z,93.15
2019-03-31T02:39:39.145Z,93.34
2019-03-31T02:40:39.713Z,92.96
2019-03-31T02:41:40.281Z,93.54
2019-03-31T02:42:40.851Z,93.63
2019-03-31T02:43:41.420Z,93.34
2019-03-31T02:44:41.987Z,93.05
2019-03-31T02:45:42.556Z,93.54
2019-03-31T02:46:43.125Z,93.05
2019-03-31T02:47:43.742Z,93.44
2019-03-31T02:48:44.389Z,93.54
2019-03-31T02:49:45.182Z,93.82
2019-03-31T02:50:45.761Z,93.39
2019-03-31T02:51:46.359Z,94.01
2019-03-31T02:52:46.923Z,93.63
2019-03-31T02:53:47.546Z,93.34
2019-03-31T02:54:48.115Z,93.87
2019-03-31T02:55:48.727Z,94.07
2019-03-31T02:56:49.298Z,93.34
2019-03-31T02:57:49.910Z,93.82
2019-03-31T02:58:50.479Z,93.92
2019-03-31T02:59:51.048Z,94.11
2019-03-31T03:00:51.625Z,93.59
2019-03-31T03:01:52.231Z,94.01
2019-03-31T03:02:52.849Z,93.92
2019-03-31T03:03:53.417Z,93.92
2019-03-31T03:04:53.984Z,94.11
2019-03-31T03:05:54.558Z,94.54
2019-03-31T03:06:55.123Z,94.49
2019-03-31T03:07:55.689Z,94.21
2019-03-31T03:08:56.385Z,93.73
2019-03-31T03:09:56.986Z,94.01
2019-03-31T03:10:57.555Z,94.69
2019-03-31T03:11:58.124Z,94.21
2019-03-31T03:12:58.693Z,94.21
2019-03-31T03:13:59.261Z,94.21
2019-03-31T03:14:59.880Z,94.31
2019-03-31T03:16:00.447Z,93.97
2019-03-31T03:17:01.022Z,94.16
2019-03-31T03:18:01.640Z,94.16
2019-03-31T03:19:02.226Z,94.16
2019-03-31T03:20:02.778Z,94.49
2019-03-31T03:21:03.407Z,95.17
2019-03-31T03:22:03.941Z,94.93
2019-03-31T03:23:04.513Z,93.97
2019-03-31T03:24:05.078Z,93.97
2019-03-31T03:25:05.645Z,94.54
2019-03-31T03:26:06.213Z,94.07
2019-03-31T03:27:06.834Z,94.07
2019-03-31T03:28:07.409Z,93.97
2019-03-31T03:29:07.973Z,94.07
2019-03-31T03:30:08.655Z,94.07
2019-03-31T03:31:15.257Z,93.77
2019-03-31T03:32:10.862Z,93.87
2019-03-31T03:33:15.901Z,94.35
2019-03-31T03:34:13.035Z,93.97
2019-03-31T03:35:13.665Z,93.97
2019-03-31T03:36:14.224Z,94.83
2019-03-31T03:37:14.791Z,94.69
2019-03-31T03:38:15.362Z,94.26
2019-03-31T03:39:15.942Z,94.26
2019-03-31T03:40:16.546Z,94.35
2019-03-31T03:41:17.115Z,94.54
2019-03-31T03:42:17.683Z,93.97
2019-03-31T03:43:18.452Z,94.54
2019-03-31T03:44:19.021Z,94.45
2019-03-31T03:45:19.636Z,94.54
2019-03-31T03:46:20.261Z,93.87
2019-03-31T03:47:20.842Z,94.45
2019-03-31T03:48:21.395Z,94.54
2019-03-31T03:49:21.963Z,93.97
2019-03-31T03:50:22.532Z,94.07
2019-03-31T03:51:23.100Z,93.97
2019-03-31T03:52:23.675Z,93.97
2019-03-31T03:53:24.241Z,93.59
2019-03-31T03:54:24.872Z,93.77
2019-03-31T03:55:25.424Z,94.07
2019-03-31T03:56:29.046Z,93.77
2019-03-31T03:57:27.557Z,93.97
2019-03-31T03:58:28.176Z,93.97
2019-03-31T03:59:28.745Z,94.07
2019-03-31T04:00:29.317Z,93.59
2019-03-31T04:01:29.936Z,94.07
2019-03-31T04:02:30.550Z,93.59
2019-03-31T04:03:31.324Z,93.97
2019-03-31T04:04:31.775Z,93.77
2019-03-31T04:05:32.343Z,94.16
2019-03-31T04:06:32.913Z,93.97
2019-03-31T04:07:33.492Z,94.07
2019-03-31T04:08:34.049Z,93.59
2019-03-31T04:09:34.654Z,93.97
2019-03-31T04:10:35.273Z,94.07
2019-03-31T04:11:35.840Z,94.16
2019-03-31T04:12:36.409Z,93.97
2019-03-31T04:15:18.183Z,94.45
2019-03-31T04:16:18.751Z,93.97
2019-03-31T04:17:19.359Z,94.26
2019-03-31T04:18:19.927Z,94.45
2019-03-31T04:19:20.496Z,94.45
2019-03-31T04:20:21.064Z,94.45
2019-03-31T04:21:21.684Z,94.45
2019-03-31T04:22:22.302Z,94.26
2019-03-31T04:23:22.918Z,94.45
2019-03-31T04:24:23.564Z,94.16
2019-03-31T04:27:27.234Z,94.07
2019-03-31T04:28:27.800Z,94.16
2019-03-31T04:29:28.417Z,94.07
2019-03-31T04:30:29.031Z,94.45
2019-03-31T04:31:29.596Z,94.16
2019-03-31T04:32:30.168Z,94.26
2019-03-31T04:33:49.563Z,94.64
2019-03-31T04:34:32.396Z,94.64
2019-03-31T04:35:32.963Z,94.16
2019-03-31T04:36:33.531Z,94.45
2019-03-31T04:37:34.167Z,94.16
2019-03-31T04:38:34.716Z,94.45
2019-03-31T04:39:35.335Z,94.64
2019-03-31T04:40:35.917Z,94.26
2019-03-31T04:41:36.475Z,94.26
2019-03-31T04:42:37.043Z,94.35
2019-03-31T04:43:37.613Z,94.35
2019-03-31T04:44:38.182Z,94.35
2019-03-31T04:45:38.750Z,94.16
2019-03-31T04:46:39.369Z,93.77
2019-03-31T04:47:39.937Z,94.07
2019-03-31T04:48:40.508Z,93.97
2019-03-31T04:49:41.124Z,93.97
2019-03-31T04:50:41.693Z,93.59
2019-03-31T04:51:42.264Z,94.16
2019-03-31T04:52:42.830Z,93.87
2019-03-31T04:53:43.396Z,93.68
2019-03-31T04:54:43.965Z,93.77
2019-03-31T04:56:06.407Z,94.35
2019-03-31T04:57:07.026Z,93.68
2019-03-31T04:58:07.598Z,94.64
2019-03-31T05:00:09.781Z,94.64
2019-03-31T05:01:10.361Z,94.74
2019-03-31T05:02:10.933Z,95.03
2019-03-31T05:03:11.509Z,94.74
2019-03-31T05:04:12.084Z,95.12
2019-03-31T05:05:12.659Z,95.03
2019-03-31T05:06:13.272Z,95.21
2019-03-31T05:07:13.843Z,95.21
2019-03-31T05:10:11.429Z,95.12
2019-03-31T05:12:16.778Z,94.64
2019-03-31T05:18:01.459Z,94.74
2019-03-31T05:19:02.037Z,94.83
2019-03-31T05:20:02.605Z,95.03
2019-03-31T05:21:03.234Z,95.03
2019-03-31T05:22:03.846Z,94.93
2019-03-31T05:23:04.419Z,94.35
2019-03-31T05:24:04.992Z,94.93
2019-03-31T05:25:05.563Z,94.16
2019-03-31T05:26:06.137Z,94.74
2019-03-31T05:27:06.711Z,94.83
2019-03-31T05:28:07.285Z,94.45
2019-03-31T05:29:07.857Z,95.03
2019-03-31T05:30:08.432Z,94.93
2019-03-31T05:31:09.155Z,94.74
2019-03-31T05:32:09.779Z,95.12
2019-03-31T05:33:10.353Z,95.03
2019-03-31T05:34:19.001Z,94.07
2019-03-31T05:35:11.589Z,94.93
2019-03-31T05:36:12.163Z,94.93
2019-03-31T05:37:12.736Z,95.03
2019-03-31T05:38:13.358Z,94.35
2019-03-31T05:39:13.982Z,94.45
2019-03-31T05:40:14.555Z,94.93
2019-03-31T05:41:15.131Z,94.64
2019-03-31T05:42:15.705Z,94.26
2019-03-31T05:43:16.283Z,94.07
2019-03-31T05:44:16.854Z,94.35
2019-03-31T05:45:17.427Z,94.64
2019-03-31T05:46:18.102Z,94.16
2019-03-31T05:47:18.679Z,94.16
2019-03-31T05:48:19.299Z,94.35
2019-03-31T05:49:19.873Z,94.16
2019-03-31T05:50:20.452Z,94.83
2019-03-31T05:51:21.020Z,94.45
2019-03-31T05:52:21.592Z,94.45
2019-03-31T05:53:22.165Z,93.92
2019-03-31T05:54:22.788Z,95.03
2019-03-31T05:55:23.363Z,94.16
2019-03-31T05:56:23.936Z,94.26
2019-03-31T05:57:24.510Z,94.16
2019-03-31T05:58:25.127Z,94.16
2019-03-31T05:59:25.704Z,94.26
2019-03-31T06:00:26.272Z,94.07
2019-03-31T06:01:26.845Z,94.93
2019-03-31T06:02:27.466Z,94.26
2019-03-31T06:03:28.090Z,94.45
2019-03-31T06:04:33.454Z,94.64
2019-03-31T06:05:30.283Z,94.83
2019-03-31T06:06:30.905Z,95.07
2019-03-31T06:07:31.480Z,94.93
2019-03-31T06:08:32.054Z,94.93
2019-03-31T06:09:32.626Z,94.98
2019-03-31T06:10:33.256Z,94.93
2019-03-31T06:11:33.825Z,94.93
2019-03-31T06:12:34.401Z,94.93
2019-03-31T06:13:35.019Z,94.35
2019-03-31T06:14:35.593Z,94.02
2019-03-31T06:15:36.167Z,94.40
2019-03-31T06:16:36.789Z,94.21
2019-03-31T06:17:37.362Z,94.69
2019-03-31T06:18:37.936Z,94.21
2019-03-31T06:19:38.561Z,94.40
2019-03-31T06:20:39.133Z,94.45
2019-03-31T06:21:39.709Z,93.92
2019-03-31T06:22:40.423Z,94.88
2019-03-31T06:23:40.995Z,94.49
2019-03-31T06:24:41.571Z,94.02
2019-03-31T06:25:42.144Z,94.88
2019-03-31T06:26:42.721Z,94.69
2019-03-31T06:27:43.342Z,94.98
2019-03-31T06:28:43.959Z,95.07
2019-03-31T06:29:44.535Z,94.79
2019-03-31T06:30:45.104Z,94.88
2019-03-31T06:31:45.746Z,95.07
2019-03-31T06:32:46.317Z,94.88
2019-03-31T06:33:46.891Z,94.40
2019-03-31T06:34:48.042Z,94.02
2019-03-31T06:35:48.737Z,94.69
2019-03-31T06:36:49.313Z,94.21
2019-03-31T06:37:49.934Z,94.98
2019-03-31T06:38:50.507Z,95.07
2019-03-31T06:39:51.080Z,94.98
2019-03-31T06:40:51.654Z,94.98
2019-03-31T06:41:52.227Z,94.88
2019-03-31T06:42:52.850Z,94.88
2019-03-31T06:43:53.424Z,94.79
2019-03-31T06:44:53.998Z,94.59
2019-03-31T06:45:54.574Z,94.98
2019-03-31T06:46:55.147Z,94.88
2019-03-31T06:47:55.776Z,94.21
2019-03-31T06:48:56.342Z,94.98
2019-03-31T06:49:56.915Z,94.88
2019-03-31T06:50:57.488Z,94.31
2019-03-31T06:51:58.062Z,95.07
2019-03-31T06:52:58.640Z,94.79
2019-03-31T06:53:59.209Z,95.07
2019-03-31T06:54:59.778Z,94.98
2019-03-31T06:56:00.351Z,94.98
2019-03-31T06:57:00.972Z,94.69
2019-03-31T06:58:01.543Z,95.07
2019-03-31T06:59:02.115Z,94.98
2019-03-31T07:00:02.689Z,94.79
2019-03-31T07:01:03.260Z,94.98
2019-03-31T07:02:03.854Z,94.98
2019-03-31T07:03:04.403Z,95.07
2019-03-31T07:04:05.030Z,94.88
2019-03-31T07:05:05.690Z,94.88
2019-03-31T07:06:06.263Z,94.79
2019-03-31T07:07:06.834Z,94.02
2019-03-31T07:08:07.410Z,94.12
2019-03-31T07:09:08.029Z,94.40
2019-03-31T07:10:08.605Z,94.21
2019-03-31T07:11:09.179Z,93.92
2019-03-31T07:12:09.753Z,94.79
2019-03-31T07:13:10.329Z,94.88
2019-03-31T07:14:10.902Z,94.31
2019-03-31T07:15:11.477Z,94.02
2019-03-31T07:16:12.049Z,94.02
2019-03-31T07:17:12.624Z,94.31
2019-03-31T07:18:15.892Z,94.98
2019-03-31T07:19:14.813Z,94.40
2019-03-31T07:20:15.439Z,94.49
2019-03-31T07:21:16.063Z,94.98
2019-03-31T07:22:16.638Z,94.88
2019-03-31T07:23:17.211Z,94.79
2019-03-31T07:24:17.785Z,94.88
2019-03-31T07:25:18.452Z,94.79
2019-03-31T07:26:19.024Z,94.98
2019-03-31T07:27:19.596Z,94.88
2019-03-31T07:28:20.170Z,95.36
2019-03-31T07:29:20.743Z,95.07
2019-03-31T07:30:21.315Z,94.98
2019-03-31T07:31:21.889Z,95.17
2019-03-31T07:32:22.462Z,95.65
2019-03-31T07:33:23.035Z,95.36
2019-03-31T07:34:23.607Z,94.79
2019-03-31T07:35:24.179Z,95.17
2019-03-31T07:36:24.753Z,95.07
2019-03-31T07:37:25.325Z,95.26
2019-03-31T07:38:38.346Z,96.03
2019-03-31T07:39:27.651Z,95.75
2019-03-31T07:40:28.484Z,94.69
2019-03-31T07:41:29.204Z,95.17
2019-03-31T07:42:29.862Z,94.69
2019-03-31T07:43:30.425Z,94.79
2019-03-31T07:44:31.064Z,94.98
2019-03-31T07:45:31.621Z,94.98
2019-03-31T07:46:32.194Z,94.79
2019-03-31T07:47:32.766Z,95.07
2019-03-31T07:48:33.336Z,95.17
2019-03-31T07:49:33.914Z,95.26
2019-03-31T07:50:34.524Z,95.17
2019-03-31T07:51:37.542Z,96.03
2019-03-31T07:52:36.663Z,95.94
2019-03-31T07:53:37.236Z,94.98
2019-03-31T07:54:37.813Z,95.17
2019-03-31T07:55:38.437Z,95.65
2019-03-31T07:56:39.009Z,95.94
2019-03-31T07:57:39.608Z,95.46
2019-03-31T07:58:40.155Z,95.55
2019-03-31T07:59:40.927Z,95.36
2019-03-31T08:00:41.458Z,95.26
2019-03-31T08:01:42.036Z,95.26
2019-03-31T08:02:42.610Z,94.98
2019-03-31T08:03:43.185Z,94.79
2019-03-31T08:04:43.761Z,95.55
2019-03-31T08:05:44.385Z,95.26
2019-03-31T08:06:45.107Z,95.26
2019-03-31T08:07:45.681Z,94.98
2019-03-31T08:08:46.304Z,94.98
2019-03-31T08:09:46.876Z,95.36
2019-03-31T08:10:47.494Z,95.07
2019-03-31T08:11:48.066Z,94.98
2019-03-31T08:12:48.643Z,94.79
2019-03-31T08:13:49.215Z,94.69
2019-03-31T08:14:49.788Z,94.40
2019-03-31T08:15:50.359Z,94.59
2019-03-31T08:16:50.933Z,94.79
2019-03-31T08:17:51.560Z,94.79
2019-03-31T08:18:52.131Z,94.88
2019-03-31T08:19:52.700Z,94.98
2019-03-31T08:20:53.324Z,95.07
2019-03-31T08:21:53.897Z,94.59
2019-03-31T08:22:57.110Z,94.98
2019-03-31T08:23:56.084Z,95.26
2019-03-31T08:24:56.656Z,95.31
2019-03-31T08:25:57.231Z,94.88
2019-03-31T08:26:57.952Z,95.07
2019-03-31T08:27:58.524Z,94.49
2019-03-31T08:28:59.148Z,94.59
2019-03-31T08:30:00.777Z,94.88
2019-03-31T08:31:01.288Z,95.36
2019-03-31T08:32:01.865Z,95.55
2019-03-31T08:33:02.484Z,95.46
2019-03-31T08:34:03.125Z,95.79
2019-03-31T08:35:03.724Z,94.83
2019-03-31T08:36:04.299Z,94.88
2019-03-31T08:37:04.925Z,94.69
2019-03-31T08:38:05.547Z,94.79
2019-03-31T08:39:06.121Z,94.74
2019-03-31T08:40:06.696Z,94.74
2019-03-31T08:41:07.268Z,94.64
2019-03-31T08:42:07.849Z,94.93
2019-03-31T08:43:08.462Z,94.59
2019-03-31T08:44:09.036Z,95.03
2019-03-31T08:45:09.610Z,94.54
2019-03-31T08:46:10.277Z,95.03
2019-03-31T08:47:10.849Z,94.83
2019-03-31T08:48:11.422Z,95.12
2019-03-31T08:49:11.996Z,94.83
2019-03-31T08:50:12.567Z,94.64
2019-03-31T08:51:13.189Z,94.74
2019-03-31T08:52:13.812Z,95.12
2019-03-31T08:53:14.386Z,94.93
2019-03-31T08:54:14.959Z,94.83
2019-03-31T08:55:15.534Z,94.93
2019-03-31T08:56:16.198Z,94.74
2019-03-31T08:57:16.771Z,94.93
2019-03-31T08:58:17.341Z,95.31
2019-03-31T08:59:17.916Z,95.12
2019-03-31T09:00:18.497Z,95.03
2019-03-31T09:01:19.111Z,94.35
2019-03-31T09:02:19.734Z,94.54
2019-03-31T09:03:20.316Z,94.16
2019-03-31T09:04:20.885Z,93.87
2019-03-31T09:05:21.512Z,94.93
2019-03-31T09:06:22.090Z,93.87
2019-03-31T09:07:22.750Z,94.16
2019-03-31T09:08:23.325Z,92.91
2019-03-31T09:09:23.967Z,94.07
2019-03-31T09:10:24.541Z,94.07
2019-03-31T09:11:25.116Z,93.10
2019-03-31T09:12:25.695Z,92.72
2019-03-31T09:13:26.308Z,92.91
2019-03-31T09:14:26.883Z,92.82
2019-03-31T09:15:27.509Z,93.39
2019-03-31T09:16:28.085Z,93.01
2019-03-31T09:17:28.710Z,92.63
2019-03-31T09:18:29.286Z,92.24
2019-03-31T09:19:29.883Z,93.01
2019-03-31T09:20:30.456Z,92.63
2019-03-31T09:21:31.027Z,92.43
2019-03-31T09:22:31.652Z,92.53
2019-03-31T09:23:32.226Z,93.49
2019-03-31T09:24:32.802Z,93.49
2019-03-31T09:25:33.377Z,92.91
2019-03-31T09:26:33.952Z,92.82
2019-03-31T09:27:34.527Z,92.82
2019-03-31T09:28:35.098Z,93.10
2019-03-31T09:29:35.674Z,92.53
2019-03-31T09:30:36.342Z,93.05
2019-03-31T09:31:36.916Z,92.24
2019-03-31T09:32:42.537Z,92.43
2019-03-31T09:33:43.110Z,92.24
2019-03-31T09:34:43.884Z,92.57
2019-03-31T09:35:44.460Z,93.05
2019-03-31T09:36:45.186Z,92.82
2019-03-31T09:37:45.762Z,92.77
2019-03-31T09:38:48.422Z,93.15
2019-03-31T09:39:47.908Z,88.16
2019-03-31T09:40:48.538Z,90.27
2019-03-31T09:41:49.115Z,92.19
2019-03-31T09:42:49.695Z,91.71
2019-03-31T09:43:50.274Z,91.90
2019-03-31T09:44:50.851Z,92.00
2019-03-31T09:45:51.429Z,92.24
2019-03-31T09:46:52.005Z,91.56
2019-03-31T09:47:52.585Z,91.75
2019-03-31T09:48:53.172Z,91.28
2019-03-31T09:49:53.795Z,91.18
2019-03-31T09:50:56.578Z,90.89
2019-03-31T09:51:55.995Z,90.89
2019-03-31T09:52:56.574Z,89.50
2019-03-31T09:53:57.156Z,89.93
2019-03-31T09:54:57.729Z,90.36
2019-03-31T09:55:58.326Z,88.92
2019-03-31T09:56:58.906Z,87.57
2019-03-31T09:57:59.483Z,87.38
2019-03-31T09:59:00.060Z,87.67
2019-03-31T10:00:00.641Z,88.63
2019-03-31T10:01:01.224Z,89.11
2019-03-31T10:02:01.855Z,87.86
2019-03-31T10:03:02.482Z,87.09
2019-03-31T10:04:03.111Z,86.52
2019-03-31T10:05:03.691Z,86.42
2019-03-31T10:06:10.634Z,87.38
2019-03-31T10:07:05.848Z,87.38
2019-03-31T10:08:06.467Z,88.06
2019-03-31T10:09:07.097Z,88.53
2019-03-31T10:10:07.678Z,88.24
2019-03-31T10:11:08.259Z,88.10
2019-03-31T10:12:09.039Z,88.96
2019-03-31T10:13:09.620Z,88.77
2019-03-31T10:14:10.200Z,88.48
2019-03-31T10:15:10.781Z,86.94
2019-03-31T10:16:11.360Z,86.65
2019-03-31T10:17:11.942Z,87.23
2019-03-31T10:18:12.523Z,87.71
2019-03-31T10:19:13.104Z,88.39
2019-03-31T10:20:13.737Z,88.39
2019-03-31T10:21:14.317Z,87.90
2019-03-31T10:22:14.898Z,88.00
2019-03-31T10:23:15.479Z,87.81
2019-03-31T10:24:16.059Z,87.37
2019-03-31T10:25:16.690Z,87.66
2019-03-31T10:26:31.102Z,87.81
2019-03-31T10:27:18.844Z,88.14
2019-03-31T10:28:19.471Z,88.00
2019-03-31T10:29:20.051Z,87.85
2019-03-31T10:30:20.632Z,87.18
2019-03-31T10:31:21.213Z,87.37
2019-03-31T10:32:21.843Z,86.79
2019-03-31T10:33:22.423Z,87.46
2019-03-31T10:34:23.002Z,87.18
2019-03-31T10:35:23.582Z,86.51
2019-03-31T10:36:24.164Z,86.93
2019-03-31T10:37:24.744Z,86.16
2019-03-31T10:38:25.325Z,85.87
2019-03-31T10:39:25.912Z,85.87
2019-03-31T10:40:26.540Z,85.97
2019-03-31T10:41:27.125Z,85.68
2019-03-31T10:42:27.750Z,85.58
2019-03-31T10:43:28.333Z,85.49
2019-03-31T10:44:28.912Z,85.49
2019-03-31T10:45:29.495Z,85.39
2019-03-31T10:46:30.076Z,85.68
2019-03-31T10:47:30.658Z,85.49
2019-03-31T10:48:31.290Z,85.20
2019-03-31T10:49:31.922Z,85.14
2019-03-31T10:50:32.556Z,84.86
2019-03-31T10:51:33.143Z,84.95
2019-03-31T10:52:33.770Z,84.47
2019-03-31T10:53:34.353Z,84.47
2019-03-31T10:54:34.938Z,84.66
2019-03-31T10:55:35.526Z,84.66
2019-03-31T10:56:36.108Z,84.28
2019-03-31T10:57:36.691Z,84.76
2019-03-31T10:58:37.277Z,84.09
2019-03-31T10:59:37.861Z,84.52
2019-03-31T11:01:57.839Z,84.12
2019-03-31T11:03:12.139Z,83.74
2019-03-31T11:05:14.351Z,83.26
2019-03-31T11:09:49.367Z,82.14
2019-03-31T11:12:39.026Z,82.43
2019-03-31T11:13:39.663Z,82.62
2019-03-31T11:14:40.251Z,82.14
2019-03-31T11:18:15.646Z,81.60
2019-03-31T11:22:21.070Z,80.26
2019-03-31T11:23:21.686Z,80.06
2019-03-31T11:24:22.328Z,80.06
2019-03-31T11:26:24.543Z,79.62
2019-03-31T11:29:28.294Z,78.94
2019-03-31T11:30:28.934Z,78.66
2019-03-31T11:31:29.629Z,78.11
2019-03-31T11:32:30.217Z,78.31
2019-03-31T11:33:30.810Z,78.11
2019-03-31T11:34:31.601Z,77.63
2019-03-31T11:35:32.193Z,77.38
2019-03-31T11:36:32.787Z,77.48
2019-03-31T11:37:33.427Z,77.00
2019-03-31T11:38:34.041Z,77.00
2019-03-31T11:39:34.611Z,76.70
2019-03-31T11:40:35.246Z,76.90
2019-03-31T11:41:35.889Z,76.42
2019-03-31T11:42:36.480Z,75.93
2019-03-31T11:43:37.078Z,75.74
2019-03-31T11:44:37.774Z,75.45
2019-03-31T11:45:38.316Z,75.58
2019-03-31T11:46:38.960Z,75.29
2019-03-31T11:47:39.553Z,74.71
2019-03-31T11:48:40.145Z,74.71
2019-03-31T11:49:40.779Z,74.32
2019-03-31T11:50:41.378Z,73.78
2019-03-31T11:51:41.966Z,73.88
2019-03-31T11:52:42.559Z,73.59
2019-03-31T11:53:43.154Z,73.30
2019-03-31T11:54:45.898Z,73.01
2019-03-31T11:55:45.332Z,72.46
2019-03-31T11:56:45.975Z,71.98
2019-03-31T11:57:46.620Z,71.98
2019-03-31T11:58:47.262Z,71.69
2019-03-31T11:59:49.657Z,71.34
2019-03-31T12:00:48.546Z,70.76
2019-03-31T12:01:49.176Z,70.56
2019-03-31T12:02:49.770Z,70.40
2019-03-31T12:03:50.362Z,70.40
2019-03-31T12:04:50.958Z,69.53
2019-03-31T12:05:51.603Z,70.11
2019-03-31T12:06:52.200Z,70.86
2019-03-31T12:07:52.794Z,71.30
2019-03-31T12:08:53.388Z,71.78
2019-03-31T12:09:53.983Z,70.95
2019-03-31T12:10:54.624Z,70.31
2019-03-31T12:11:55.216Z,69.92
2019-03-31T12:12:55.812Z,69.27
2019-03-31T12:13:56.408Z,68.89
2019-03-31T12:15:00.539Z,68.54
2019-03-31T12:15:57.637Z,68.05
2019-03-31T12:16:58.231Z,67.72
2019-03-31T12:17:58.875Z,68.30
2019-03-31T12:18:59.470Z,68.89
2019-03-31T12:20:00.373Z,68.73
2019-03-31T12:21:01.074Z,67.85
2019-03-31T12:22:01.669Z,67.11
2019-03-31T12:23:02.313Z,66.72
2019-03-31T12:24:02.910Z,66.53
2019-03-31T12:25:03.502Z,66.17
2019-03-31T12:26:04.105Z,65.79
2019-03-31T12:27:04.698Z,66.92
2019-03-31T12:28:05.297Z,66.24
2019-03-31T12:29:05.935Z,66.17
2019-03-31T12:30:06.580Z,65.59
2019-03-31T12:31:07.172Z,65.33
2019-03-31T12:32:07.917Z,65.14
2019-03-31T12:33:08.511Z,65.50
2019-03-31T12:34:09.107Z,66.53
2019-03-31T12:35:09.701Z,68.02
2019-03-31T12:36:10.347Z,68.99
2019-03-31T12:37:10.996Z,69.82
2019-03-31T12:39:13.785Z,68.24
2019-03-31T12:40:15.479Z,67.37
2019-03-31T12:41:15.979Z,68.99
2019-03-31T12:42:16.562Z,69.79
2019-03-31T12:43:30.863Z,70.76
2019-03-31T12:44:31.447Z,70.76
2019-03-31T12:59:07.953Z,62.06
2019-03-31T13:00:08.578Z,61.57
2019-03-31T13:02:10.757Z,60.79
2019-03-31T13:05:28.430Z,60.72
2019-03-31T13:06:29.078Z,59.85
2019-03-31T13:07:29.675Z,60.46
2019-03-31T13:08:30.269Z,59.59
2019-03-31T13:09:30.871Z,59.10
2019-03-31T13:10:31.465Z,59.03
2019-03-31T13:11:32.056Z,58.64
2019-03-31T13:12:35.013Z,58.74
2019-03-31T13:13:33.287Z,58.74
2019-03-31T13:14:33.884Z,58.45
2019-03-31T13:15:34.570Z,58.35
2019-03-31T13:16:35.133Z,58.06
2019-03-31T13:17:48.521Z,57.89
2019-03-31T13:18:49.119Z,57.11
2019-03-31T13:20:51.343Z,56.62
2019-03-31T13:21:51.937Z,56.46
2019-03-31T13:22:52.583Z,56.26
2019-03-31T13:23:53.234Z,56.26
2019-03-31T13:24:53.834Z,56.07
2019-03-31T13:25:54.480Z,55.58
2019-03-31T13:26:55.128Z,55.61
2019-03-31T13:27:55.737Z,55.41
2019-03-31T13:28:56.368Z,55.71
2019-03-31T13:29:56.965Z,54.93
2019-03-31T13:30:57.562Z,55.02
2019-03-31T13:31:58.160Z,55.02
2019-03-31T13:32:58.756Z,54.95
2019-03-31T13:33:59.356Z,54.85
2019-03-31T13:35:00.003Z,54.56
2019-03-31T13:36:00.655Z,54.66
2019-03-31T13:37:01.293Z,54.27
2019-03-31T13:38:10.994Z,53.97
2019-03-31T13:39:03.479Z,54.17
2019-03-31T13:40:04.078Z,53.97
2019-03-31T13:41:04.672Z,53.58
2019-03-31T13:42:05.271Z,53.97
2019-03-31T13:43:05.922Z,53.97
2019-03-31T13:44:06.514Z,53.29
2019-03-31T13:45:07.110Z,53.58
2019-03-31T13:46:07.762Z,53.22
2019-03-31T13:47:08.358Z,53.13
2019-03-31T13:48:08.959Z,53.13
2019-03-31T13:49:09.554Z,52.83
2019-03-31T13:50:10.153Z,52.93
2019-03-31T13:51:10.757Z,52.93
2019-03-31T13:52:11.445Z,53.22
2019-03-31T13:53:12.091Z,53.32
2019-03-31T13:54:12.689Z,52.83